sensor_id;sensor_type;location;lat;lon;timestamp;P1;durP1;ratioP1;P2;durP2;ratioP2
55224;SDS011;41091;49.400;8.684;2023-03-13T00:01:34;11.98;;;2.63;;
55224;SDS011;41091;49.400;8.684;2023-03-13T00:04:04;11.23;;;2.20;;
55224;SDS011;41091;49.400;8.684;2023-03-13T00:06:33;6.93;;;2.05;;
55224;SDS011;41091;49.400;8.684;2023-03-13T00:09:00;10.32;;;3.17;;
55224;SDS011;41091;49.400;8.684;2023-03-13T00:11:26;6.53;;;1.85;;
55224;SDS011;41091;49.400;8.684;2023-03-13T00:13:54;17.30;;;2.92;;
55224;SDS011;41091;49.400;8.684;2023-03-13T00:16:23;9.48;;;3.25;;
55224;SDS011;41091;49.400;8.684;2023-03-13T00:18:51;8.52;;;3.40;;
55224;SDS011;41091;49.400;8.684;2023-03-13T00:21:19;12.90;;;2.05;;
55224;SDS011;41091;49.400;8.684;2023-03-13T00:23:48;12.43;;;1.98;;
55224;SDS011;41091;49.400;8.684;2023-03-13T00:26:19;8.35;;;2.50;;
55224;SDS011;41091;49.400;8.684;2023-03-13T00:28:45;16.37;;;3.13;;
55224;SDS011;41091;49.400;8.684;2023-03-13T00:31:12;9.95;;;2.33;;
55224;SDS011;41091;49.400;8.684;2023-03-13T00:33:44;13.93;;;2.15;;
55224;SDS011;41091;49.400;8.684;2023-03-13T00:38:46;8.40;;;1.98;;
55224;SDS011;41091;49.400;8.684;2023-03-13T00:41:17;8.60;;;1.98;;
55224;SDS011;41091;49.400;8.684;2023-03-13T00:43:46;10.70;;;1.95;;
55224;SDS011;41091;49.400;8.684;2023-03-13T00:46:13;11.98;;;2.65;;
55224;SDS011;41091;49.400;8.684;2023-03-13T00:48:40;14.63;;;2.47;;
55224;SDS011;41091;49.400;8.684;2023-03-13T00:51:08;8.48;;;1.52;;
55224;SDS011;41091;49.400;8.684;2023-03-13T00:53:33;17.80;;;2.17;;
55224;SDS011;41091;49.400;8.684;2023-03-13T00:56:00;13.45;;;2.45;;
55224;SDS011;41091;49.400;8.684;2023-03-13T00:58:27;6.82;;;1.45;;
55224;SDS011;41091;49.400;8.684;2023-03-13T01:00:56;11.85;;;2.42;;
55224;SDS011;41091;49.400;8.684;2023-03-13T01:03:29;9.35;;;2.70;;
55224;SDS011;41091;49.400;8.684;2023-03-13T01:05:55;16.02;;;2.47;;
55224;SDS011;41091;49.400;8.684;2023-03-13T01:08:26;8.02;;;2.13;;
55224;SDS011;41091;49.400;8.684;2023-03-13T01:11:09;8.35;;;1.65;;
55224;SDS011;41091;49.400;8.684;2023-03-13T01:13:42;9.23;;;2.03;;
55224;SDS011;41091;49.400;8.684;2023-03-13T01:16:13;10.02;;;2.30;;
55224;SDS011;41091;49.400;8.684;2023-03-13T01:18:40;9.48;;;1.52;;
55224;SDS011;41091;49.400;8.684;2023-03-13T01:21:07;9.73;;;1.52;;
55224;SDS011;41091;49.400;8.684;2023-03-13T01:23:33;6.38;;;1.50;;
55224;SDS011;41091;49.400;8.684;2023-03-13T01:25:59;8.23;;;2.30;;
55224;SDS011;41091;49.400;8.684;2023-03-13T01:28:27;9.20;;;3.05;;
55224;SDS011;41091;49.400;8.684;2023-03-13T01:30:55;6.95;;;2.00;;
55224;SDS011;41091;49.400;8.684;2023-03-13T01:33:21;11.52;;;2.45;;
55224;SDS011;41091;49.400;8.684;2023-03-13T01:35:46;8.90;;;2.58;;
55224;SDS011;41091;49.400;8.684;2023-03-13T01:38:12;11.23;;;1.52;;
55224;SDS011;41091;49.400;8.684;2023-03-13T01:40:38;10.88;;;1.65;;
55224;SDS011;41091;49.400;8.684;2023-03-13T01:43:11;10.35;;;2.08;;
55224;SDS011;41091;49.400;8.684;2023-03-13T01:48:30;12.57;;;2.10;;
55224;SDS011;41091;49.400;8.684;2023-03-13T01:51:34;8.63;;;2.08;;
55224;SDS011;41091;49.400;8.684;2023-03-13T01:54:24;20.00;;;2.70;;
55224;SDS011;41091;49.400;8.684;2023-03-13T01:56:55;8.82;;;1.85;;
55224;SDS011;41091;49.400;8.684;2023-03-13T01:59:33;11.85;;;2.00;;
55224;SDS011;41091;49.400;8.684;2023-03-13T02:02:02;5.23;;;1.40;;
55224;SDS011;41091;49.400;8.684;2023-03-13T02:04:29;7.72;;;1.50;;
55224;SDS011;41091;49.400;8.684;2023-03-13T02:06:57;14.63;;;1.73;;
55224;SDS011;41091;49.400;8.684;2023-03-13T02:09:25;9.68;;;2.58;;
55224;SDS011;41091;49.400;8.684;2023-03-13T02:17:02;6.43;;;1.75;;
55224;SDS011;41091;49.400;8.684;2023-03-13T02:24:50;14.57;;;1.83;;
55224;SDS011;41091;49.400;8.684;2023-03-13T02:27:21;9.55;;;1.63;;
55224;SDS011;41091;49.400;8.684;2023-03-13T02:29:46;9.43;;;1.77;;
55224;SDS011;41091;49.400;8.684;2023-03-13T02:32:11;5.70;;;1.58;;
55224;SDS011;41091;49.400;8.684;2023-03-13T02:34:38;7.53;;;1.63;;
55224;SDS011;41091;49.400;8.684;2023-03-13T02:37:04;8.13;;;1.70;;
55224;SDS011;41091;49.400;8.684;2023-03-13T02:39:31;5.78;;;1.33;;
55224;SDS011;41091;49.400;8.684;2023-03-13T02:41:57;7.82;;;1.15;;
55224;SDS011;41091;49.400;8.684;2023-03-13T02:44:23;8.00;;;1.63;;
55224;SDS011;41091;49.400;8.684;2023-03-13T02:46:50;7.45;;;1.33;;
55224;SDS011;41091;49.400;8.684;2023-03-13T02:49:23;8.35;;;1.40;;
55224;SDS011;41091;49.400;8.684;2023-03-13T02:51:50;5.10;;;1.52;;
55224;SDS011;41091;49.400;8.684;2023-03-13T02:54:20;8.88;;;1.67;;
55224;SDS011;41091;49.400;8.684;2023-03-13T02:56:48;7.80;;;1.90;;
55224;SDS011;41091;49.400;8.684;2023-03-13T02:59:16;4.93;;;1.00;;
55224;SDS011;41091;49.400;8.684;2023-03-13T03:01:44;4.43;;;0.98;;
55224;SDS011;41091;49.400;8.684;2023-03-13T03:04:16;4.10;;;0.98;;
55224;SDS011;41091;49.400;8.684;2023-03-13T03:06:45;8.75;;;1.63;;
55224;SDS011;41091;49.400;8.684;2023-03-13T03:09:11;9.60;;;2.20;;
55224;SDS011;41091;49.400;8.684;2023-03-13T03:11:36;11.27;;;1.77;;
55224;SDS011;41091;49.400;8.684;2023-03-13T03:14:05;3.28;;;0.82;;
55224;SDS011;41091;49.400;8.684;2023-03-13T03:16:32;6.60;;;1.42;;
55224;SDS011;41091;49.400;8.684;2023-03-13T03:18:58;7.07;;;1.30;;
55224;SDS011;41091;49.400;8.684;2023-03-13T03:21:26;12.73;;;1.30;;
55224;SDS011;41091;49.400;8.684;2023-03-13T03:23:51;2.65;;;1.17;;
55224;SDS011;41091;49.400;8.684;2023-03-13T03:26:16;6.25;;;1.70;;
55224;SDS011;41091;49.400;8.684;2023-03-13T03:28:45;5.78;;;1.00;;
55224;SDS011;41091;49.400;8.684;2023-03-13T03:31:13;3.75;;;1.45;;
55224;SDS011;41091;49.400;8.684;2023-03-13T03:33:41;4.25;;;1.42;;
55224;SDS011;41091;49.400;8.684;2023-03-13T03:36:09;4.25;;;1.00;;
55224;SDS011;41091;49.400;8.684;2023-03-13T03:38:38;3.13;;;1.15;;
55224;SDS011;41091;49.400;8.684;2023-03-13T03:41:07;2.65;;;0.95;;
55224;SDS011;41091;49.400;8.684;2023-03-13T03:43:37;1.55;;;1.05;;
55224;SDS011;41091;49.400;8.684;2023-03-13T03:46:03;1.92;;;0.95;;
55224;SDS011;41091;49.400;8.684;2023-03-13T03:48:28;7.00;;;0.80;;
55224;SDS011;41091;49.400;8.684;2023-03-13T03:50:53;3.50;;;1.00;;
55224;SDS011;41091;49.400;8.684;2023-03-13T03:53:19;8.25;;;1.30;;
55224;SDS011;41091;49.400;8.684;2023-03-13T03:55:44;8.07;;;0.73;;
55224;SDS011;41091;49.400;8.684;2023-03-13T03:58:10;4.10;;;1.05;;
55224;SDS011;41091;49.400;8.684;2023-03-13T04:00:38;5.85;;;1.60;;
55224;SDS011;41091;49.400;8.684;2023-03-13T04:03:03;4.97;;;1.10;;
55224;SDS011;41091;49.400;8.684;2023-03-13T04:05:28;2.65;;;0.98;;
55224;SDS011;41091;49.400;8.684;2023-03-13T04:07:54;7.70;;;1.10;;
55224;SDS011;41091;49.400;8.684;2023-03-13T04:10:19;6.90;;;1.20;;
55224;SDS011;41091;49.400;8.684;2023-03-13T04:12:45;2.90;;;0.80;;
55224;SDS011;41091;49.400;8.684;2023-03-13T04:15:13;1.15;;;0.70;;
55224;SDS011;41091;49.400;8.684;2023-03-13T04:17:38;2.65;;;0.80;;
55224;SDS011;41091;49.400;8.684;2023-03-13T04:20:06;4.00;;;0.75;;
55224;SDS011;41091;49.400;8.684;2023-03-13T04:22:32;1.92;;;0.73;;
55224;SDS011;41091;49.400;8.684;2023-03-13T04:24:59;2.47;;;0.50;;
55224;SDS011;41091;49.400;8.684;2023-03-13T04:27:25;3.65;;;0.75;;
55224;SDS011;41091;49.400;8.684;2023-03-13T04:29:50;1.48;;;1.08;;
55224;SDS011;41091;49.400;8.684;2023-03-13T04:32:18;5.55;;;1.38;;
55224;SDS011;41091;49.400;8.684;2023-03-13T04:34:43;4.38;;;0.95;;
55224;SDS011;41091;49.400;8.684;2023-03-13T04:37:08;1.70;;;0.90;;
55224;SDS011;41091;49.400;8.684;2023-03-13T04:39:36;10.13;;;1.63;;
55224;SDS011;41091;49.400;8.684;2023-03-13T04:42:03;2.78;;;0.90;;
55224;SDS011;41091;49.400;8.684;2023-03-13T04:44:29;1.65;;;0.75;;
55224;SDS011;41091;49.400;8.684;2023-03-13T04:46:54;2.60;;;0.77;;
55224;SDS011;41091;49.400;8.684;2023-03-13T04:49:19;2.20;;;0.70;;
55224;SDS011;41091;49.400;8.684;2023-03-13T04:51:45;1.25;;;0.57;;
55224;SDS011;41091;49.400;8.684;2023-03-13T04:54:10;6.85;;;0.70;;
55224;SDS011;41091;49.400;8.684;2023-03-13T04:56:36;3.20;;;1.10;;
55224;SDS011;41091;49.400;8.684;2023-03-13T04:59:01;5.28;;;0.80;;
55224;SDS011;41091;49.400;8.684;2023-03-13T05:01:29;3.15;;;1.08;;
55224;SDS011;41091;49.400;8.684;2023-03-13T05:03:54;2.83;;;1.05;;
55224;SDS011;41091;49.400;8.684;2023-03-13T05:06:20;0.40;;;0.40;;
55224;SDS011;41091;49.400;8.684;2023-03-13T05:08:46;3.80;;;1.13;;
55224;SDS011;41091;49.400;8.684;2023-03-13T05:11:12;5.00;;;1.42;;
55224;SDS011;41091;49.400;8.684;2023-03-13T05:13:37;1.80;;;0.50;;
55224;SDS011;41091;49.400;8.684;2023-03-13T05:16:05;1.85;;;0.57;;
55224;SDS011;41091;49.400;8.684;2023-03-13T05:18:31;0.73;;;0.60;;
55224;SDS011;41091;49.400;8.684;2023-03-13T05:20:56;6.53;;;0.80;;
55224;SDS011;41091;49.400;8.684;2023-03-13T05:23:24;1.98;;;0.90;;
55224;SDS011;41091;49.400;8.684;2023-03-13T05:25:52;3.08;;;0.70;;
55224;SDS011;41091;49.400;8.684;2023-03-13T05:28:17;4.20;;;0.90;;
55224;SDS011;41091;49.400;8.684;2023-03-13T05:30:42;2.25;;;0.88;;
55224;SDS011;41091;49.400;8.684;2023-03-13T05:33:08;3.92;;;0.80;;
55224;SDS011;41091;49.400;8.684;2023-03-13T05:35:36;2.65;;;1.00;;
55224;SDS011;41091;49.400;8.684;2023-03-13T05:38:01;1.05;;;0.65;;
55224;SDS011;41091;49.400;8.684;2023-03-13T05:40:29;2.28;;;1.00;;
55224;SDS011;41091;49.400;8.684;2023-03-13T05:42:54;1.65;;;0.70;;
55224;SDS011;41091;49.400;8.684;2023-03-13T05:45:19;4.70;;;0.77;;
55224;SDS011;41091;49.400;8.684;2023-03-13T05:47:45;0.93;;;0.93;;
55224;SDS011;41091;49.400;8.684;2023-03-13T05:50:11;2.83;;;0.80;;
55224;SDS011;41091;49.400;8.684;2023-03-13T05:52:36;6.32;;;0.77;;
55224;SDS011;41091;49.400;8.684;2023-03-13T05:55:01;7.90;;;1.05;;
55224;SDS011;41091;49.400;8.684;2023-03-13T05:57:27;5.13;;;1.00;;
55224;SDS011;41091;49.400;8.684;2023-03-13T05:59:54;0.82;;;0.82;;
55224;SDS011;41091;49.400;8.684;2023-03-13T06:02:19;1.05;;;0.68;;
55224;SDS011;41091;49.400;8.684;2023-03-13T06:04:45;1.67;;;0.70;;
55224;SDS011;41091;49.400;8.684;2023-03-13T06:07:11;1.00;;;0.90;;
55224;SDS011;41091;49.400;8.684;2023-03-13T06:09:36;2.25;;;0.85;;
55224;SDS011;41091;49.400;8.684;2023-03-13T06:12:02;1.00;;;0.90;;
55224;SDS011;41091;49.400;8.684;2023-03-13T06:14:27;1.52;;;0.90;;
55224;SDS011;41091;49.400;8.684;2023-03-13T06:16:53;0.70;;;0.70;;
55224;SDS011;41091;49.400;8.684;2023-03-13T06:19:19;1.48;;;0.70;;
55224;SDS011;41091;49.400;8.684;2023-03-13T06:21:50;1.20;;;0.75;;
55224;SDS011;41091;49.400;8.684;2023-03-13T06:24:16;3.15;;;0.90;;
55224;SDS011;41091;49.400;8.684;2023-03-13T06:26:43;2.38;;;0.70;;
55224;SDS011;41091;49.400;8.684;2023-03-13T06:29:11;0.70;;;0.60;;
55224;SDS011;41091;49.400;8.684;2023-03-13T06:31:39;2.95;;;0.70;;
55224;SDS011;41091;49.400;8.684;2023-03-13T06:34:04;0.70;;;0.60;;
55224;SDS011;41091;49.400;8.684;2023-03-13T06:36:32;0.63;;;0.60;;
55224;SDS011;41091;49.400;8.684;2023-03-13T06:38:59;1.20;;;0.60;;
55224;SDS011;41091;49.400;8.684;2023-03-13T06:41:25;1.35;;;0.68;;
55224;SDS011;41091;49.400;8.684;2023-03-13T06:43:52;2.17;;;0.70;;
55224;SDS011;41091;49.400;8.684;2023-03-13T06:46:19;2.78;;;1.23;;
55224;SDS011;41091;49.400;8.684;2023-03-13T06:48:46;1.15;;;0.80;;
55224;SDS011;41091;49.400;8.684;2023-03-13T06:51:12;2.10;;;0.60;;
55224;SDS011;41091;49.400;8.684;2023-03-13T06:53:39;1.08;;;0.47;;
55224;SDS011;41091;49.400;8.684;2023-03-13T06:56:04;2.17;;;0.90;;
55224;SDS011;41091;49.400;8.684;2023-03-13T06:58:30;2.75;;;0.82;;
55224;SDS011;41091;49.400;8.684;2023-03-13T07:00:58;3.33;;;0.45;;
55224;SDS011;41091;49.400;8.684;2023-03-13T07:03:24;0.40;;;0.40;;
55224;SDS011;41091;49.400;8.684;2023-03-13T07:05:56;1.23;;;0.60;;
55224;SDS011;41091;49.400;8.684;2023-03-13T07:08:22;7.20;;;1.10;;
55224;SDS011;41091;49.400;8.684;2023-03-13T07:10:50;1.55;;;0.77;;
55224;SDS011;41091;49.400;8.684;2023-03-13T07:13:18;0.60;;;0.60;;
55224;SDS011;41091;49.400;8.684;2023-03-13T07:15:45;1.38;;;0.43;;
55224;SDS011;41091;49.400;8.684;2023-03-13T07:18:12;0.38;;;0.38;;
55224;SDS011;41091;49.400;8.684;2023-03-13T07:20:37;0.63;;;0.50;;
55224;SDS011;41091;49.400;8.684;2023-03-13T07:23:03;2.05;;;0.80;;
55224;SDS011;41091;49.400;8.684;2023-03-13T07:25:28;1.95;;;0.40;;
55224;SDS011;41091;49.400;8.684;2023-03-13T07:27:56;1.65;;;0.50;;
55224;SDS011;41091;49.400;8.684;2023-03-13T07:30:27;0.50;;;0.50;;
55224;SDS011;41091;49.400;8.684;2023-03-13T07:32:53;1.65;;;0.50;;
55224;SDS011;41091;49.400;8.684;2023-03-13T07:35:19;1.48;;;0.47;;
55224;SDS011;41091;49.400;8.684;2023-03-13T07:37:44;2.20;;;0.70;;
55224;SDS011;41091;49.400;8.684;2023-03-13T07:40:10;3.33;;;0.50;;
55224;SDS011;41091;49.400;8.684;2023-03-13T07:42:40;0.50;;;0.50;;
55224;SDS011;41091;49.400;8.684;2023-03-13T07:45:06;0.50;;;0.50;;
55224;SDS011;41091;49.400;8.684;2023-03-13T07:47:35;3.28;;;0.65;;
55224;SDS011;41091;49.400;8.684;2023-03-13T07:50:01;1.58;;;0.45;;
55224;SDS011;41091;49.400;8.684;2023-03-13T07:52:29;1.15;;;0.80;;
55224;SDS011;41091;49.400;8.684;2023-03-13T07:54:54;1.95;;;0.90;;
55224;SDS011;41091;49.400;8.684;2023-03-13T07:57:22;1.55;;;0.63;;
55224;SDS011;41091;49.400;8.684;2023-03-13T07:59:51;2.30;;;0.73;;
55224;SDS011;41091;49.400;8.684;2023-03-13T08:02:16;0.65;;;0.57;;
55224;SDS011;41091;49.400;8.684;2023-03-13T08:04:41;0.88;;;0.60;;
55224;SDS011;41091;49.400;8.684;2023-03-13T08:07:09;0.50;;;0.50;;
55224;SDS011;41091;49.400;8.684;2023-03-13T08:09:35;0.63;;;0.40;;
55224;SDS011;41091;49.400;8.684;2023-03-13T08:12:00;3.83;;;0.80;;
55224;SDS011;41091;49.400;8.684;2023-03-13T08:14:26;1.48;;;0.70;;
55224;SDS011;41091;49.400;8.684;2023-03-13T08:16:52;1.77;;;0.75;;
55224;SDS011;41091;49.400;8.684;2023-03-13T08:19:17;1.80;;;0.60;;
55224;SDS011;41091;49.400;8.684;2023-03-13T08:21:45;0.57;;;0.55;;
55224;SDS011;41091;49.400;8.684;2023-03-13T08:24:10;0.50;;;0.50;;
55224;SDS011;41091;49.400;8.684;2023-03-13T08:26:37;0.40;;;0.40;;
55224;SDS011;41091;49.400;8.684;2023-03-13T08:29:08;1.40;;;0.50;;
55224;SDS011;41091;49.400;8.684;2023-03-13T08:31:38;1.00;;;0.65;;
55224;SDS011;41091;49.400;8.684;2023-03-13T08:34:07;0.40;;;0.40;;
55224;SDS011;41091;49.400;8.684;2023-03-13T08:36:33;0.85;;;0.70;;
55224;SDS011;41091;49.400;8.684;2023-03-13T08:39:03;1.55;;;0.68;;
55224;SDS011;41091;49.400;8.684;2023-03-13T08:41:32;1.98;;;0.60;;
55224;SDS011;41091;49.400;8.684;2023-03-13T08:44:00;0.60;;;0.60;;
55224;SDS011;41091;49.400;8.684;2023-03-13T08:46:28;0.60;;;0.60;;
55224;SDS011;41091;49.400;8.684;2023-03-13T08:48:55;0.70;;;0.70;;
55224;SDS011;41091;49.400;8.684;2023-03-13T08:51:21;2.40;;;1.00;;
55224;SDS011;41091;49.400;8.684;2023-03-13T08:53:48;1.48;;;0.60;;
55224;SDS011;41091;49.400;8.684;2023-03-13T08:56:17;1.05;;;0.77;;
55224;SDS011;41091;49.400;8.684;2023-03-13T08:58:47;1.30;;;0.90;;
55224;SDS011;41091;49.400;8.684;2023-03-13T09:01:16;2.58;;;0.63;;
55224;SDS011;41091;49.400;8.684;2023-03-13T09:03:44;0.70;;;0.70;;
55224;SDS011;41091;49.400;8.684;2023-03-13T09:06:10;0.90;;;0.63;;
55224;SDS011;41091;49.400;8.684;2023-03-13T09:08:38;0.65;;;0.65;;
55224;SDS011;41091;49.400;8.684;2023-03-13T09:11:10;0.63;;;0.63;;
55224;SDS011;41091;49.400;8.684;2023-03-13T09:16:05;0.47;;;0.43;;
55224;SDS011;41091;49.400;8.684;2023-03-13T09:18:35;1.20;;;0.63;;
55224;SDS011;41091;49.400;8.684;2023-03-13T09:21:04;0.40;;;0.40;;
55224;SDS011;41091;49.400;8.684;2023-03-13T09:23:37;1.55;;;0.73;;
55224;SDS011;41091;49.400;8.684;2023-03-13T09:26:03;2.25;;;0.52;;
55224;SDS011;41091;49.400;8.684;2023-03-13T09:28:28;5.90;;;0.47;;
55224;SDS011;41091;49.400;8.684;2023-03-13T09:31:04;0.77;;;0.68;;
55224;SDS011;41091;49.400;8.684;2023-03-13T09:33:37;0.65;;;0.65;;
55224;SDS011;41091;49.400;8.684;2023-03-13T09:36:03;3.08;;;0.90;;
55224;SDS011;41091;49.400;8.684;2023-03-13T09:38:32;3.05;;;0.80;;
55224;SDS011;41091;49.400;8.684;2023-03-13T09:41:00;4.50;;;0.60;;
55224;SDS011;41091;49.400;8.684;2023-03-13T09:46:17;0.60;;;0.60;;
55224;SDS011;41091;49.400;8.684;2023-03-13T09:48:51;0.90;;;0.70;;
55224;SDS011;41091;49.400;8.684;2023-03-13T09:51:27;1.52;;;0.50;;
55224;SDS011;41091;49.400;8.684;2023-03-13T09:56:33;1.63;;;0.52;;
55224;SDS011;41091;49.400;8.684;2023-03-13T09:59:21;1.63;;;0.60;;
55224;SDS011;41091;49.400;8.684;2023-03-13T10:01:53;3.85;;;0.70;;
55224;SDS011;41091;49.400;8.684;2023-03-13T10:06:52;1.10;;;0.82;;
55224;SDS011;41091;49.400;8.684;2023-03-13T10:09:19;4.60;;;1.02;;
55224;SDS011;41091;49.400;8.684;2023-03-13T10:19:41;4.93;;;0.70;;
55224;SDS011;41091;49.400;8.684;2023-03-13T10:22:12;2.50;;;0.85;;
55224;SDS011;41091;49.400;8.684;2023-03-13T10:24:49;1.42;;;0.90;;
55224;SDS011;41091;49.400;8.684;2023-03-13T10:27:18;4.85;;;0.80;;
55224;SDS011;41091;49.400;8.684;2023-03-13T10:29:46;1.35;;;0.82;;
55224;SDS011;41091;49.400;8.684;2023-03-13T10:32:15;5.45;;;0.80;;
55224;SDS011;41091;49.400;8.684;2023-03-13T10:37:21;1.38;;;0.60;;
55224;SDS011;41091;49.400;8.684;2023-03-13T10:39:47;0.98;;;0.60;;
55224;SDS011;41091;49.400;8.684;2023-03-13T10:42:18;0.85;;;0.75;;
55224;SDS011;41091;49.400;8.684;2023-03-13T10:44:45;4.63;;;0.90;;
55224;SDS011;41091;49.400;8.684;2023-03-13T10:47:13;1.77;;;0.80;;
55224;SDS011;41091;49.400;8.684;2023-03-13T10:49:49;1.00;;;1.00;;
55224;SDS011;41091;49.400;8.684;2023-03-13T10:55:10;3.35;;;0.70;;
55224;SDS011;41091;49.400;8.684;2023-03-13T10:57:37;1.00;;;1.00;;
55224;SDS011;41091;49.400;8.684;2023-03-13T11:00:04;1.25;;;0.80;;
55224;SDS011;41091;49.400;8.684;2023-03-13T11:02:50;2.80;;;0.98;;
55224;SDS011;41091;49.400;8.684;2023-03-13T11:11:05;1.83;;;0.77;;
55224;SDS011;41091;49.400;8.684;2023-03-13T11:13:44;1.85;;;0.98;;
55224;SDS011;41091;49.400;8.684;2023-03-13T11:16:22;0.80;;;0.77;;
55224;SDS011;41091;49.400;8.684;2023-03-13T11:38:31;4.15;;;0.80;;
55224;SDS011;41091;49.400;8.684;2023-03-13T11:46:48;1.60;;;0.90;;
55224;SDS011;41091;49.400;8.684;2023-03-13T11:49:26;7.30;;;1.38;;
55224;SDS011;41091;49.400;8.684;2023-03-13T11:52:15;9.95;;;1.17;;
55224;SDS011;41091;49.400;8.684;2023-03-13T11:57:15;1.77;;;0.95;;
55224;SDS011;41091;49.400;8.684;2023-03-13T11:59:44;0.80;;;0.70;;
55224;SDS011;41091;49.400;8.684;2023-03-13T12:02:20;0.80;;;0.65;;
55224;SDS011;41091;49.400;8.684;2023-03-13T12:15:30;1.87;;;0.80;;
55224;SDS011;41091;49.400;8.684;2023-03-13T12:20:53;0.88;;;0.88;;
55224;SDS011;41091;49.400;8.684;2023-03-13T12:23:26;0.98;;;0.68;;
55224;SDS011;41091;49.400;8.684;2023-03-13T12:25:58;5.30;;;0.77;;
55224;SDS011;41091;49.400;8.684;2023-03-13T12:30:58;3.42;;;0.75;;
55224;SDS011;41091;49.400;8.684;2023-03-13T12:38:40;2.10;;;1.05;;
55224;SDS011;41091;49.400;8.684;2023-03-13T12:43:43;1.63;;;1.00;;
55224;SDS011;41091;49.400;8.684;2023-03-13T12:46:21;5.25;;;1.10;;
55224;SDS011;41091;49.400;8.684;2023-03-13T13:00:36;1.15;;;0.77;;
55224;SDS011;41091;49.400;8.684;2023-03-13T13:05:31;3.67;;;0.85;;
55224;SDS011;41091;49.400;8.684;2023-03-13T13:07:57;0.77;;;0.70;;
55224;SDS011;41091;49.400;8.684;2023-03-13T13:10:25;1.15;;;0.80;;
55224;SDS011;41091;49.400;8.684;2023-03-13T13:15:45;2.25;;;0.73;;
55224;SDS011;41091;49.400;8.684;2023-03-13T13:18:13;1.25;;;0.70;;
55224;SDS011;41091;49.400;8.684;2023-03-13T13:20:50;1.17;;;0.90;;
55224;SDS011;41091;49.400;8.684;2023-03-13T13:23:40;1.60;;;0.65;;
55224;SDS011;41091;49.400;8.684;2023-03-13T13:31:44;2.30;;;0.82;;
55224;SDS011;41091;49.400;8.684;2023-03-13T13:39:46;2.55;;;0.95;;
55224;SDS011;41091;49.400;8.684;2023-03-13T13:47:42;0.88;;;0.88;;
55224;SDS011;41091;49.400;8.684;2023-03-13T13:50:25;6.28;;;1.15;;
55224;SDS011;41091;49.400;8.684;2023-03-13T13:52:52;2.08;;;0.63;;
55224;SDS011;41091;49.400;8.684;2023-03-13T13:55:31;0.47;;;0.47;;
55224;SDS011;41091;49.400;8.684;2023-03-13T13:58:04;1.35;;;0.70;;
55224;SDS011;41091;49.400;8.684;2023-03-13T14:05:55;1.23;;;0.60;;
55224;SDS011;41091;49.400;8.684;2023-03-13T14:10:52;0.63;;;0.63;;
55224;SDS011;41091;49.400;8.684;2023-03-13T14:13:28;1.60;;;0.68;;
55224;SDS011;41091;49.400;8.684;2023-03-13T14:15:55;2.42;;;1.00;;
55224;SDS011;41091;49.400;8.684;2023-03-13T14:20:51;1.85;;;0.60;;
55224;SDS011;41091;49.400;8.684;2023-03-13T14:23:31;1.08;;;0.60;;
55224;SDS011;41091;49.400;8.684;2023-03-13T14:26:07;0.88;;;0.70;;
55224;SDS011;41091;49.400;8.684;2023-03-13T14:28:40;1.13;;;0.60;;
55224;SDS011;41091;49.400;8.684;2023-03-13T14:31:08;2.13;;;0.70;;
55224;SDS011;41091;49.400;8.684;2023-03-13T14:33:39;0.80;;;0.68;;
55224;SDS011;41091;49.400;8.684;2023-03-13T14:36:04;1.80;;;0.80;;
55224;SDS011;41091;49.400;8.684;2023-03-13T14:38:30;6.72;;;0.70;;
55224;SDS011;41091;49.400;8.684;2023-03-13T14:40:58;4.13;;;0.70;;
55224;SDS011;41091;49.400;8.684;2023-03-13T14:45:56;4.28;;;0.80;;
55224;SDS011;41091;49.400;8.684;2023-03-13T14:48:22;2.25;;;0.75;;
55224;SDS011;41091;49.400;8.684;2023-03-13T14:51:07;2.78;;;1.20;;
55224;SDS011;41091;49.400;8.684;2023-03-13T14:53:32;1.05;;;0.88;;
55224;SDS011;41091;49.400;8.684;2023-03-13T14:56:08;4.88;;;1.70;;
55224;SDS011;41091;49.400;8.684;2023-03-13T14:58:44;2.65;;;2.05;;
55224;SDS011;41091;49.400;8.684;2023-03-13T15:01:14;5.35;;;1.77;;
55224;SDS011;41091;49.400;8.684;2023-03-13T15:03:48;2.83;;;1.20;;
55224;SDS011;41091;49.400;8.684;2023-03-13T15:06:14;4.43;;;1.00;;
55224;SDS011;41091;49.400;8.684;2023-03-13T15:08:44;1.83;;;1.00;;
55224;SDS011;41091;49.400;8.684;2023-03-13T15:11:29;0.70;;;0.70;;
55224;SDS011;41091;49.400;8.684;2023-03-13T15:14:01;1.65;;;0.80;;
55224;SDS011;41091;49.400;8.684;2023-03-13T15:16:27;0.70;;;0.65;;
55224;SDS011;41091;49.400;8.684;2023-03-13T15:18:53;3.28;;;0.70;;
55224;SDS011;41091;49.400;8.684;2023-03-13T15:26:20;1.67;;;0.65;;
55224;SDS011;41091;49.400;8.684;2023-03-13T15:28:46;0.95;;;0.80;;
55224;SDS011;41091;49.400;8.684;2023-03-13T15:31:14;1.02;;;0.70;;
55224;SDS011;41091;49.400;8.684;2023-03-13T15:33:39;3.47;;;0.73;;
55224;SDS011;41091;49.400;8.684;2023-03-13T15:36:06;2.65;;;0.90;;
55224;SDS011;41091;49.400;8.684;2023-03-13T15:38:32;3.70;;;0.60;;
55224;SDS011;41091;49.400;8.684;2023-03-13T15:41:00;0.75;;;0.50;;
55224;SDS011;41091;49.400;8.684;2023-03-13T15:43:25;4.03;;;0.70;;
55224;SDS011;41091;49.400;8.684;2023-03-13T15:45:51;4.22;;;0.82;;
55224;SDS011;41091;49.400;8.684;2023-03-13T15:48:23;1.42;;;0.60;;
55224;SDS011;41091;49.400;8.684;2023-03-13T15:50:52;4.05;;;0.60;;
55224;SDS011;41091;49.400;8.684;2023-03-13T15:53:20;4.63;;;0.50;;
55224;SDS011;41091;49.400;8.684;2023-03-13T15:55:48;2.45;;;0.85;;
55224;SDS011;41091;49.400;8.684;2023-03-13T15:58:14;0.77;;;0.50;;
55224;SDS011;41091;49.400;8.684;2023-03-13T16:00:42;1.92;;;0.60;;
55224;SDS011;41091;49.400;8.684;2023-03-13T16:05:41;0.50;;;0.50;;
55224;SDS011;41091;49.400;8.684;2023-03-13T16:08:16;1.02;;;0.60;;
55224;SDS011;41091;49.400;8.684;2023-03-13T16:10:43;2.72;;;1.00;;
55224;SDS011;41091;49.400;8.684;2023-03-13T16:13:08;4.85;;;1.70;;
55224;SDS011;41091;49.400;8.684;2023-03-13T16:15:34;1.88;;;1.70;;
55224;SDS011;41091;49.400;8.684;2023-03-13T16:18:02;3.08;;;1.10;;
55224;SDS011;41091;49.400;8.684;2023-03-13T16:20:29;1.30;;;1.20;;
55224;SDS011;41091;49.400;8.684;2023-03-13T16:22:56;3.05;;;1.00;;
55224;SDS011;41091;49.400;8.684;2023-03-13T16:25:27;8.18;;;0.60;;
55224;SDS011;41091;49.400;8.684;2023-03-13T16:27:55;7.30;;;0.55;;
55224;SDS011;41091;49.400;8.684;2023-03-13T16:30:22;4.95;;;0.60;;
55224;SDS011;41091;49.400;8.684;2023-03-13T16:32:52;1.10;;;0.45;;
55224;SDS011;41091;49.400;8.684;2023-03-13T16:35:17;12.73;;;0.57;;
55224;SDS011;41091;49.400;8.684;2023-03-13T16:37:43;0.40;;;0.40;;
55224;SDS011;41091;49.400;8.684;2023-03-13T16:42:44;4.95;;;0.63;;
55224;SDS011;41091;49.400;8.684;2023-03-13T16:45:09;2.67;;;0.50;;
55224;SDS011;41091;49.400;8.684;2023-03-13T16:47:38;0.40;;;0.40;;
55224;SDS011;41091;49.400;8.684;2023-03-13T16:50:11;0.93;;;0.50;;
55224;SDS011;41091;49.400;8.684;2023-03-13T16:52:42;4.15;;;1.50;;
55224;SDS011;41091;49.400;8.684;2023-03-13T16:55:07;1.48;;;0.47;;
55224;SDS011;41091;49.400;8.684;2023-03-13T16:57:35;1.45;;;1.05;;
55224;SDS011;41091;49.400;8.684;2023-03-13T17:00:00;0.30;;;0.30;;
55224;SDS011;41091;49.400;8.684;2023-03-13T17:02:28;1.25;;;0.70;;
55224;SDS011;41091;49.400;8.684;2023-03-13T17:04:54;0.95;;;0.40;;
55224;SDS011;41091;49.400;8.684;2023-03-13T17:07:22;2.28;;;0.40;;
55224;SDS011;41091;49.400;8.684;2023-03-13T17:09:49;1.98;;;0.50;;
55224;SDS011;41091;49.400;8.684;2023-03-13T17:12:17;10.80;;;0.40;;
55224;SDS011;41091;49.400;8.684;2023-03-13T17:14:43;1.05;;;0.45;;
55224;SDS011;41091;49.400;8.684;2023-03-13T17:17:15;2.10;;;0.50;;
55224;SDS011;41091;49.400;8.684;2023-03-13T17:19:42;0.40;;;0.40;;
55224;SDS011;41091;49.400;8.684;2023-03-13T17:22:14;0.57;;;0.50;;
55224;SDS011;41091;49.400;8.684;2023-03-13T17:27:13;1.77;;;0.50;;
55224;SDS011;41091;49.400;8.684;2023-03-13T17:29:39;0.38;;;0.38;;